East Brunswick, Pennsylvania
Current Conditions -  °F | °C
As of 5:15 PM on Monday 26 Jan 2015 (Local Time) from KHZL Reporting Station
Light Snow Light Snow  
Wind Chill: 15°   Ceiling: 2400
Heat Index: 23°   Visibility: 2mi
Dew Point: 19°   Wind: 7mph
Humidity: 86%   Direction: 70°ENE
Pressure: 29.76"   Gusts: NA
Location:  40.7138°N, 75.9395°W
Report Text: KHZL 262215Z AUTO 07006KT 050V110 2SM -SN OVC024 M05/M07 A2976 RMK AO2 LTG DSNT SE
Loading
Personal Weather Stations






























Interactive Weather Map New forecast layout! Learn more

10-Day Weather Forecast

Advertisements
Track Severe Weather on mobile